createdAt,value
2022-09-14T00:03:26.357Z,1.60
2022-09-14T00:08:20.040Z,1.52
2022-09-14T00:13:15.161Z,1.80
2022-09-14T00:18:15.959Z,1.50
2022-09-14T00:23:09.146Z,2.03
2022-09-14T00:28:03.238Z,1.60
2022-09-14T00:32:57.252Z,1.33
2022-09-14T00:37:51.831Z,1.85
2022-09-14T00:42:46.308Z,1.02
2022-09-14T00:47:39.801Z,1.50
2022-09-14T00:52:36.448Z,1.60
2022-09-14T00:57:35.577Z,1.60
2022-09-14T01:02:29.542Z,1.30
2022-09-14T01:07:34.752Z,1.50
2022-09-14T01:12:40.480Z,1.40
2022-09-14T01:17:51.424Z,1.73
2022-09-14T01:23:06.260Z,1.48
2022-09-14T01:28:07.244Z,1.27
2022-09-14T01:33:13.751Z,1.70
2022-09-14T01:38:23.751Z,1.98
2022-09-14T01:43:41.848Z,1.70
2022-09-14T01:48:47.232Z,1.58
2022-09-14T01:53:49.384Z,1.50
2022-09-14T01:58:51.092Z,1.50
2022-09-14T02:03:50.752Z,1.60
2022-09-14T02:08:45.179Z,1.70
2022-09-14T02:13:39.429Z,1.75
2022-09-14T02:18:33.587Z,1.58
2022-09-14T02:23:27.065Z,1.98
2022-09-14T02:28:24.281Z,1.88
2022-09-14T02:33:41.394Z,2.63
2022-09-14T02:38:56.819Z,2.28
2022-09-14T02:43:54.508Z,2.20
2022-09-14T02:49:18.741Z,2.05
2022-09-14T02:54:18.608Z,2.60
2022-09-14T02:59:12.341Z,2.72
2022-09-14T03:04:05.566Z,2.65
2022-09-14T03:08:59.570Z,2.60
2022-09-14T03:13:53.393Z,2.67
2022-09-14T03:18:48.011Z,2.70
2022-09-14T03:23:43.294Z,3.38
2022-09-14T03:28:37.076Z,2.60
2022-09-14T03:33:30.159Z,3.00
2022-09-14T03:38:25.072Z,2.42
2022-09-14T03:43:22.488Z,2.95
2022-09-14T03:48:16.602Z,2.95
2022-09-14T03:53:10.839Z,2.70
2022-09-14T03:58:04.505Z,3.25
2022-09-14T04:03:01.218Z,2.70
2022-09-14T04:07:54.685Z,3.00
2022-09-14T04:12:48.405Z,2.80
2022-09-14T04:17:46.498Z,2.47
2022-09-14T04:22:39.328Z,2.88
2022-09-14T04:27:32.773Z,2.78
2022-09-14T04:32:29.650Z,2.40
2022-09-14T04:37:30.964Z,2.83
2022-09-14T04:42:25.071Z,2.53
2022-09-14T04:47:18.335Z,2.42
2022-09-14T04:52:12.377Z,2.17
2022-09-14T04:57:06.424Z,2.75
2022-09-14T05:01:59.180Z,2.33
2022-09-14T05:06:53.369Z,2.08
2022-09-14T05:11:47.094Z,2.15
2022-09-14T05:16:41.002Z,1.90
2022-09-14T05:21:37.545Z,1.63
2022-09-14T05:26:33.295Z,1.80
2022-09-14T05:31:28.516Z,1.90
2022-09-14T05:36:23.032Z,1.58
2022-09-14T05:41:16.603Z,2.53
2022-09-14T05:46:15.513Z,2.50
2022-09-14T05:51:12.852Z,3.55
2022-09-14T05:56:18.552Z,2.60
2022-09-14T06:01:21.074Z,2.45
2022-09-14T06:06:17.350Z,2.70
2022-09-14T06:11:13.029Z,3.00
2022-09-14T06:16:10.293Z,3.00
2022-09-14T06:21:05.300Z,2.78
2022-09-14T06:26:04.392Z,2.95
2022-09-14T06:30:58.617Z,2.45
2022-09-14T06:36:02.675Z,4.63
2022-09-14T06:40:59.270Z,3.40
2022-09-14T06:46:06.739Z,3.45
2022-09-14T06:51:00.811Z,2.80
2022-09-14T06:55:54.314Z,2.60
2022-09-14T07:00:48.387Z,2.83
2022-09-14T07:05:41.812Z,2.72
2022-09-14T07:10:36.042Z,2.90
2022-09-14T07:15:29.879Z,2.10
2022-09-14T07:20:27.317Z,1.90
2022-09-14T07:25:21.115Z,2.10
2022-09-14T07:30:14.520Z,1.90
2022-09-14T07:35:10.211Z,2.15
2022-09-14T07:40:04.148Z,1.92
2022-09-14T07:44:58.902Z,2.30
2022-09-14T07:49:53.760Z,1.40
2022-09-14T07:54:47.824Z,1.67
2022-09-14T07:59:41.896Z,2.40
2022-09-14T08:04:36.760Z,1.67
2022-09-14T08:09:30.936Z,2.13
2022-09-14T08:14:24.179Z,2.05
2022-09-14T08:19:19.123Z,1.95
2022-09-14T08:24:17.570Z,2.22
2022-09-14T08:29:10.659Z,1.40
2022-09-14T08:34:04.564Z,1.83
2022-09-14T08:38:57.875Z,1.60
2022-09-14T08:43:51.923Z,1.20
2022-09-14T08:48:49.000Z,1.40
2022-09-14T08:53:43.608Z,1.33
2022-09-14T08:58:47.602Z,1.33
2022-09-14T09:04:02.363Z,1.90
2022-09-14T09:09:09.719Z,1.75
2022-09-14T09:14:14.070Z,1.73
2022-09-14T09:19:17.080Z,1.40
2022-09-14T09:24:34.126Z,1.52
2022-09-14T09:29:30.223Z,1.50
2022-09-14T09:34:37.271Z,1.25
2022-09-14T09:39:40.500Z,1.20
2022-09-14T09:45:04.119Z,1.33
2022-09-14T09:50:02.550Z,1.45
2022-09-14T09:54:57.737Z,1.52
2022-09-14T09:59:55.091Z,1.13
2022-09-14T10:05:04.774Z,1.05
2022-09-14T10:15:32.651Z,1.17
2022-09-14T10:20:27.962Z,1.25
2022-09-14T10:25:20.399Z,1.38
2022-09-14T10:30:15.795Z,1.67
2022-09-14T10:35:17.945Z,1.23
2022-09-14T10:40:18.763Z,1.38
2022-09-14T10:45:19.227Z,1.40
2022-09-14T10:50:36.884Z,1.63
2022-09-14T10:55:34.515Z,1.45
2022-09-14T11:00:32.485Z,1.38
2022-09-14T11:05:31.103Z,2.00
2022-09-14T11:10:34.426Z,1.27
2022-09-14T11:15:47.242Z,1.55
2022-09-14T11:21:14.487Z,1.45
2022-09-14T11:26:17.747Z,1.92
2022-09-14T11:32:04.449Z,1.65
2022-09-14T11:37:30.552Z,2.15
2022-09-14T11:42:46.412Z,1.50
2022-09-14T11:48:41.737Z,1.77
2022-09-14T11:53:35.344Z,1.70
2022-09-14T11:58:49.122Z,2.00
2022-09-14T12:04:23.444Z,1.60
2022-09-14T12:09:24.948Z,1.50
2022-09-14T12:14:31.078Z,1.85
2022-09-14T12:19:28.018Z,1.40
2022-09-14T12:24:24.404Z,1.75
2022-09-14T12:29:34.910Z,1.95
2022-09-14T12:34:33.777Z,2.42
2022-09-14T12:39:37.400Z,1.42
2022-09-14T12:44:56.564Z,1.63
2022-09-14T12:50:09.479Z,1.40
2022-09-14T12:55:33.546Z,1.20
2022-09-14T13:01:07.623Z,1.42
2022-09-14T13:06:03.263Z,0.98
2022-09-14T13:11:24.131Z,1.20
2022-09-14T13:16:44.539Z,1.10
2022-09-14T13:21:48.888Z,1.17
2022-09-14T13:26:44.380Z,1.65
2022-09-14T13:31:39.996Z,1.58
2022-09-14T13:37:14.963Z,1.27
2022-09-14T13:42:09.594Z,1.40
2022-09-14T13:47:06.004Z,1.85
2022-09-14T13:52:19.765Z,1.60
2022-09-14T13:57:22.160Z,1.27
2022-09-14T14:02:16.558Z,2.30
2022-09-14T14:07:22.909Z,1.92
2022-09-14T14:12:32.396Z,1.73
2022-09-14T14:17:37.112Z,1.75
2022-09-14T14:22:33.717Z,2.10
2022-09-14T14:27:44.410Z,2.20
2022-09-14T14:32:44.979Z,2.00
2022-09-14T14:37:38.945Z,1.80
2022-09-14T14:42:33.042Z,2.00
2022-09-14T14:47:28.503Z,1.95
2022-09-14T14:52:22.515Z,2.05
2022-09-14T14:57:16.633Z,2.40
2022-09-14T15:02:10.517Z,1.88
2022-09-14T15:07:04.790Z,2.10
2022-09-14T15:11:57.493Z,1.98
2022-09-14T15:16:56.424Z,1.80
2022-09-14T15:21:50.701Z,1.77
2022-09-14T15:26:44.963Z,1.85
2022-09-14T15:31:38.403Z,1.60
2022-09-14T15:36:48.259Z,1.67
2022-09-14T15:41:42.080Z,1.88
2022-09-14T15:46:35.624Z,1.83
2022-09-14T15:51:29.806Z,1.80
2022-09-14T15:56:23.862Z,1.73
2022-09-14T16:01:19.042Z,1.42
2022-09-14T16:06:16.081Z,2.15
2022-09-14T16:11:09.567Z,2.15
2022-09-14T16:16:16.163Z,1.40
2022-09-14T16:21:15.165Z,1.45
2022-09-14T16:26:11.163Z,2.10
2022-09-14T16:31:24.747Z,1.42
2022-09-14T16:36:20.515Z,1.25
2022-09-14T16:41:16.012Z,1.48
2022-09-14T16:46:29.391Z,1.55
2022-09-14T16:51:25.886Z,1.25
2022-09-14T16:56:21.901Z,1.98
2022-09-14T17:01:39.864Z,1.75
2022-09-14T17:06:33.553Z,1.30
2022-09-14T17:11:29.905Z,1.60
2022-09-14T17:16:24.564Z,1.67
2022-09-14T17:21:39.315Z,1.20
2022-09-14T17:26:32.940Z,1.80
2022-09-14T17:31:29.651Z,2.35
2022-09-14T17:36:23.787Z,1.50
2022-09-14T17:41:19.235Z,2.20
2022-09-14T17:46:15.170Z,1.30
2022-09-14T17:51:15.257Z,1.45
2022-09-14T17:56:11.061Z,1.40
2022-09-14T18:01:22.421Z,1.13
2022-09-14T18:06:16.215Z,1.50
2022-09-14T18:11:15.214Z,1.45
2022-09-14T18:16:08.468Z,1.65
2022-09-14T18:21:02.383Z,1.25
2022-09-14T18:25:56.020Z,1.70
2022-09-14T18:30:49.113Z,2.03
2022-09-14T18:35:43.480Z,1.33
2022-09-14T18:40:38.884Z,2.05
2022-09-14T18:45:34.654Z,1.80
2022-09-14T18:50:33.141Z,1.23
2022-09-14T18:55:26.185Z,2.28
2022-09-14T19:00:20.348Z,1.98
2022-09-14T19:05:14.756Z,2.58
2022-09-14T19:10:11.786Z,1.98
2022-09-14T19:15:06.346Z,2.47
2022-09-14T19:19:59.835Z,2.75
2022-09-14T19:24:53.771Z,2.67
2022-09-14T19:29:47.696Z,2.38
2022-09-14T19:34:41.240Z,2.05
2022-09-14T19:39:34.642Z,2.42
2022-09-14T19:44:29.261Z,3.13
2022-09-14T19:49:25.404Z,3.42
2022-09-14T19:54:20.413Z,2.90
2022-09-14T19:59:13.082Z,2.30
2022-09-14T20:04:09.526Z,3.25
2022-09-14T20:09:14.236Z,2.67
2022-09-14T20:14:10.806Z,3.10
2022-09-14T20:19:08.793Z,2.75
2022-09-14T20:24:15.705Z,3.45
2022-09-14T20:29:10.361Z,2.25
2022-09-14T20:34:05.589Z,2.40
2022-09-14T20:39:00.406Z,4.38
2022-09-14T20:43:55.420Z,3.33
2022-09-14T20:48:50.836Z,3.00
2022-09-14T20:53:44.945Z,2.60
2022-09-14T20:58:38.680Z,3.80
2022-09-14T21:03:32.687Z,2.53
2022-09-14T21:08:26.176Z,3.38
2022-09-14T21:13:20.122Z,2.47
2022-09-14T21:18:20.753Z,2.85
2022-09-14T21:23:14.155Z,2.78
2022-09-14T21:28:08.019Z,1.90
2022-09-14T21:33:02.483Z,2.63
2022-09-14T21:37:56.573Z,2.38
2022-09-14T21:42:50.900Z,2.30
2022-09-14T21:47:43.915Z,3.38
2022-09-14T21:52:41.717Z,2.83
2022-09-14T21:57:35.098Z,2.80
2022-09-14T22:02:28.609Z,2.03
2022-09-14T22:07:22.805Z,1.80
2022-09-14T22:12:22.295Z,2.10
2022-09-14T22:17:15.766Z,2.03
2022-09-14T22:22:09.268Z,1.77
2022-09-14T22:27:03.264Z,2.17
2022-09-14T22:31:57.331Z,2.08
2022-09-14T22:36:54.905Z,1.67
2022-09-14T22:41:49.176Z,1.88
2022-09-14T22:46:43.518Z,2.17
2022-09-14T22:51:37.006Z,2.88
2022-09-14T22:56:36.210Z,1.80
2022-09-14T23:01:32.931Z,2.25
2022-09-14T23:06:34.062Z,1.92
2022-09-14T23:11:27.260Z,2.20
2022-09-14T23:16:23.913Z,2.17
2022-09-14T23:21:17.977Z,2.17
2022-09-14T23:26:12.466Z,1.83
2022-09-14T23:31:07.196Z,2.03
2022-09-14T23:36:00.425Z,1.70
2022-09-14T23:40:54.015Z,2.63
2022-09-14T23:45:47.865Z,1.88
2022-09-14T23:50:41.780Z,2.28
2022-09-14T23:55:35.333Z,1.75
